Etusivu
METAR-TAF:

METAR-TAF

Lentoasemat :

Congonhas-São Paulon kansainvälinen lentoasema

São Paulo, São Paulo, Brasilia

Leveyspiiri: 23-37S, Pituuspiiri: 046-39W, korkeus merenpinnasta: 803 m

Tämänhetkinen sää

Tämä raportti tehtiin 1 tunti ja 3 minuuttia sitten, kello 17.00 UTC
Tuuli 14 kn etelästä/kaakosta
Lämpötila 15°C
Kosteus 72%
Ilmanpaine 1028 hPa
Näkyvyys 10 km tai enemmän
Pilvistä 1900 ft:n korkeudessa

METAR: SBSP 231700Z 15014KT 9999 OVC019 15/10 Q1028

Aika: 15:03 (18:03 UTC)

Sääennuste

Tämä raportti tehtiin 1 tunti ja 43 minuuttia sitten, kello 16.20 UTC
Ennuste voimassa 23. päivästä klo 18 UTC - 24. päivään klo 06 UTC
Tuuli 13 kn etelästä/kaakosta
Näkyvyys 10 km tai enemmän
Pilvistä 1200 ft:n korkeudessa
Tulossa
23. päivästä klo 20 UTC - 23. päivään klo 22 UTC
Hajonneita pilviä 600 ft:n korkeudessa
Pilvistä 1100 ft:n korkeudessa

TAF: SBSP 231620Z 2318/2406 15013KT 9999 OVC012 TX14/2318Z TN13/2405Z BECMG 2320/2322 BKN006 OVC011 RMK PGG

Säähavainnot ja -ennusteet yli 4000 lentoasemalta (METAR- ja TAF-raportit).

Käytössä olevat sääasemat on merkitty karttaan keltaisilla ja punaisilla pisteillä.

Aseta hiiri pisteen päälle nähdäksesi sääaseman nimen.

Klikkaa sitten nähdäksesi säähavainnot ja -ennusteet.

Kartan vaihtaminen: klikkaa mustalla rastilla varustettuja vihreitä pisteitä, niin voit zoomata sisään; viivalla varustettua vihreää pistettä, niin voit zoomata ulos tai vihreitä nuolia, niin pääset viereisille kartoille.


METAR-TAF: